sensor_id;sensor_type;location;lat;lon;timestamp;temperature;humidity
1025;DHT22;501;48.214;11.350;2022-07-06T00:01:46;18.90;37.20
1025;DHT22;501;48.214;11.350;2022-07-06T00:04:12;18.90;36.50
1025;DHT22;501;48.214;11.350;2022-07-06T00:06:38;18.90;36.10
1025;DHT22;501;48.214;11.350;2022-07-06T00:09:05;18.90;36.90
1025;DHT22;501;48.214;11.350;2022-07-06T00:11:30;18.80;36.80
1025;DHT22;501;48.214;11.350;2022-07-06T00:13:56;18.80;37.20
1025;DHT22;501;48.214;11.350;2022-07-06T00:16:22;18.80;37.40
1025;DHT22;501;48.214;11.350;2022-07-06T00:18:48;18.70;38.20
1025;DHT22;501;48.214;11.350;2022-07-06T00:21:14;18.70;37.60
1025;DHT22;501;48.214;11.350;2022-07-06T00:23:40;18.70;38.40
1025;DHT22;501;48.214;11.350;2022-07-06T00:26:05;18.60;38.90
1025;DHT22;501;48.214;11.350;2022-07-06T00:28:31;18.60;38.90
1025;DHT22;501;48.214;11.350;2022-07-06T00:30:57;18.60;39.00
1025;DHT22;501;48.214;11.350;2022-07-06T00:33:22;18.60;39.60
1025;DHT22;501;48.214;11.350;2022-07-06T00:35:49;18.50;39.50
1025;DHT22;501;48.214;11.350;2022-07-06T00:38:15;18.50;40.00
1025;DHT22;501;48.214;11.350;2022-07-06T00:40:41;18.40;39.50
1025;DHT22;501;48.214;11.350;2022-07-06T00:43:06;18.40;40.50
1025;DHT22;501;48.214;11.350;2022-07-06T00:45:32;18.40;40.60
1025;DHT22;501;48.214;11.350;2022-07-06T00:47:57;18.30;40.70
1025;DHT22;501;48.214;11.350;2022-07-06T00:50:23;18.30;41.50
1025;DHT22;501;48.214;11.350;2022-07-06T00:55:18;18.30;41.70
1025;DHT22;501;48.214;11.350;2022-07-06T00:57:44;18.30;41.90
1025;DHT22;501;48.214;11.350;2022-07-06T01:00:12;18.30;41.30
1025;DHT22;501;48.214;11.350;2022-07-06T01:02:39;18.30;42.40
1025;DHT22;501;48.214;11.350;2022-07-06T01:05:06;18.30;41.00
1025;DHT22;501;48.214;11.350;2022-07-06T01:07:36;18.30;41.00
1025;DHT22;501;48.214;11.350;2022-07-06T01:10:03;18.20;41.20
1025;DHT22;501;48.214;11.350;2022-07-06T01:12:29;18.30;41.70
1025;DHT22;501;48.214;11.350;2022-07-06T01:14:55;18.30;42.10
1025;DHT22;501;48.214;11.350;2022-07-06T01:17:22;18.30;41.60
1025;DHT22;501;48.214;11.350;2022-07-06T01:19:47;18.30;41.00
1025;DHT22;501;48.214;11.350;2022-07-06T01:22:13;18.20;42.10
1025;DHT22;501;48.214;11.350;2022-07-06T01:24:39;18.20;42.70
1025;DHT22;501;48.214;11.350;2022-07-06T01:27:05;18.20;43.00
1025;DHT22;501;48.214;11.350;2022-07-06T01:29:32;18.20;43.20
1025;DHT22;501;48.214;11.350;2022-07-06T01:31:58;18.20;43.50
1025;DHT22;501;48.214;11.350;2022-07-06T01:34:24;18.20;43.60
1025;DHT22;501;48.214;11.350;2022-07-06T01:36:49;18.10;42.70
1025;DHT22;501;48.214;11.350;2022-07-06T01:39:15;18.10;42.30
1025;DHT22;501;48.214;11.350;2022-07-06T01:41:41;18.10;42.30
1025;DHT22;501;48.214;11.350;2022-07-06T01:44:07;18.10;43.90
1025;DHT22;501;48.214;11.350;2022-07-06T01:46:33;18.00;43.60
1025;DHT22;501;48.214;11.350;2022-07-06T01:48:59;18.00;44.00
1025;DHT22;501;48.214;11.350;2022-07-06T01:51:25;18.00;43.50
1025;DHT22;501;48.214;11.350;2022-07-06T01:53:51;18.00;43.00
1025;DHT22;501;48.214;11.350;2022-07-06T01:56:18;17.90;44.00
1025;DHT22;501;48.214;11.350;2022-07-06T01:58:47;17.90;44.00
1025;DHT22;501;48.214;11.350;2022-07-06T02:01:18;17.90;43.40
1025;DHT22;501;48.214;11.350;2022-07-06T02:03:44;17.90;43.90
1025;DHT22;501;48.214;11.350;2022-07-06T02:06:10;17.90;44.30
1025;DHT22;501;48.214;11.350;2022-07-06T02:08:38;17.80;44.70
1025;DHT22;501;48.214;11.350;2022-07-06T02:11:05;17.80;45.20
1025;DHT22;501;48.214;11.350;2022-07-06T02:13:30;17.80;45.20
1025;DHT22;501;48.214;11.350;2022-07-06T02:15:56;17.80;44.50
1025;DHT22;501;48.214;11.350;2022-07-06T02:18:22;17.80;44.90
1025;DHT22;501;48.214;11.350;2022-07-06T02:20:47;17.70;45.20
1025;DHT22;501;48.214;11.350;2022-07-06T02:23:13;17.70;45.50
1025;DHT22;501;48.214;11.350;2022-07-06T02:25:39;17.70;45.20
1025;DHT22;501;48.214;11.350;2022-07-06T02:28:04;17.70;46.00
1025;DHT22;501;48.214;11.350;2022-07-06T02:30:30;17.60;45.50
1025;DHT22;501;48.214;11.350;2022-07-06T02:32:56;17.60;45.40
1025;DHT22;501;48.214;11.350;2022-07-06T02:35:21;17.60;45.90
1025;DHT22;501;48.214;11.350;2022-07-06T02:37:47;17.50;45.90
1025;DHT22;501;48.214;11.350;2022-07-06T02:40:13;17.50;47.00
1025;DHT22;501;48.214;11.350;2022-07-06T02:42:38;17.50;45.90
1025;DHT22;501;48.214;11.350;2022-07-06T02:45:04;17.50;46.30
1025;DHT22;501;48.214;11.350;2022-07-06T02:47:30;17.40;46.30
1025;DHT22;501;48.214;11.350;2022-07-06T02:49:56;17.40;46.90
1025;DHT22;501;48.214;11.350;2022-07-06T02:52:24;17.40;46.90
1025;DHT22;501;48.214;11.350;2022-07-06T02:54:50;17.30;46.10
1025;DHT22;501;48.214;11.350;2022-07-06T02:57:16;17.30;46.50
1025;DHT22;501;48.214;11.350;2022-07-06T02:59:42;17.20;46.70
1025;DHT22;501;48.214;11.350;2022-07-06T03:02:08;17.10;46.60
1025;DHT22;501;48.214;11.350;2022-07-06T03:04:34;17.10;46.60
1025;DHT22;501;48.214;11.350;2022-07-06T03:07:20;17.10;47.30
1025;DHT22;501;48.214;11.350;2022-07-06T03:09:46;17.00;47.60
1025;DHT22;501;48.214;11.350;2022-07-06T03:12:11;16.90;47.70
1025;DHT22;501;48.214;11.350;2022-07-06T03:14:37;16.90;47.80
1025;DHT22;501;48.214;11.350;2022-07-06T03:17:03;16.80;47.80
1025;DHT22;501;48.214;11.350;2022-07-06T03:19:28;16.80;48.30
1025;DHT22;501;48.214;11.350;2022-07-06T03:21:54;16.80;48.10
1025;DHT22;501;48.214;11.350;2022-07-06T03:24:19;16.70;48.20
1025;DHT22;501;48.214;11.350;2022-07-06T03:26:45;16.70;48.70
1025;DHT22;501;48.214;11.350;2022-07-06T03:29:11;16.70;49.50
1025;DHT22;501;48.214;11.350;2022-07-06T03:31:36;16.60;49.40
1025;DHT22;501;48.214;11.350;2022-07-06T03:34:02;16.60;50.10
1025;DHT22;501;48.214;11.350;2022-07-06T03:36:28;16.50;49.80
1025;DHT22;501;48.214;11.350;2022-07-06T03:38:53;16.50;50.00
1025;DHT22;501;48.214;11.350;2022-07-06T03:41:22;16.50;50.00
1025;DHT22;501;48.214;11.350;2022-07-06T03:43:47;16.50;49.70
1025;DHT22;501;48.214;11.350;2022-07-06T03:46:13;16.50;50.20
1025;DHT22;501;48.214;11.350;2022-07-06T03:48:39;16.40;50.60
1025;DHT22;501;48.214;11.350;2022-07-06T03:51:04;16.40;50.90
1025;DHT22;501;48.214;11.350;2022-07-06T03:53:31;16.40;50.90
1025;DHT22;501;48.214;11.350;2022-07-06T03:55:57;16.40;51.50
1025;DHT22;501;48.214;11.350;2022-07-06T03:58:42;16.40;51.50
1025;DHT22;501;48.214;11.350;2022-07-06T04:01:07;16.40;51.70
1025;DHT22;501;48.214;11.350;2022-07-06T04:03:33;16.40;51.70
1025;DHT22;501;48.214;11.350;2022-07-06T04:05:59;16.40;51.70
1025;DHT22;501;48.214;11.350;2022-07-06T04:08:24;16.40;52.00
1025;DHT22;501;48.214;11.350;2022-07-06T04:10:50;16.50;52.60
1025;DHT22;501;48.214;11.350;2022-07-06T04:13:16;16.50;52.50
1025;DHT22;501;48.214;11.350;2022-07-06T04:15:41;16.50;52.90
1025;DHT22;501;48.214;11.350;2022-07-06T04:18:07;16.50;53.20
1025;DHT22;501;48.214;11.350;2022-07-06T04:20:32;16.60;52.20
1025;DHT22;501;48.214;11.350;2022-07-06T04:22:58;16.60;52.40
1025;DHT22;501;48.214;11.350;2022-07-06T04:25:24;16.70;53.20
1025;DHT22;501;48.214;11.350;2022-07-06T04:27:50;16.70;51.70
1025;DHT22;501;48.214;11.350;2022-07-06T04:30:16;16.80;51.70
1025;DHT22;501;48.214;11.350;2022-07-06T04:32:41;16.80;52.20
1025;DHT22;501;48.214;11.350;2022-07-06T04:35:07;16.90;52.80
1025;DHT22;501;48.214;11.350;2022-07-06T04:37:33;16.90;51.90
1025;DHT22;501;48.214;11.350;2022-07-06T04:40:03;16.90;51.70
1025;DHT22;501;48.214;11.350;2022-07-06T04:42:29;17.00;52.30
1025;DHT22;501;48.214;11.350;2022-07-06T04:44:54;17.00;51.30
1025;DHT22;501;48.214;11.350;2022-07-06T04:47:20;17.10;52.00
1025;DHT22;501;48.214;11.350;2022-07-06T04:49:45;17.10;51.90
1025;DHT22;501;48.214;11.350;2022-07-06T04:52:11;17.20;52.80
1025;DHT22;501;48.214;11.350;2022-07-06T04:54:37;17.20;51.80
1025;DHT22;501;48.214;11.350;2022-07-06T04:57:03;17.30;51.70
1025;DHT22;501;48.214;11.350;2022-07-06T04:59:29;17.40;52.30
1025;DHT22;501;48.214;11.350;2022-07-06T05:01:54;17.40;51.80
1025;DHT22;501;48.214;11.350;2022-07-06T05:04:20;17.50;50.50
1025;DHT22;501;48.214;11.350;2022-07-06T05:06:46;17.70;50.30
1025;DHT22;501;48.214;11.350;2022-07-06T05:09:12;17.80;47.90
1025;DHT22;501;48.214;11.350;2022-07-06T05:11:38;17.90;48.10
1025;DHT22;501;48.214;11.350;2022-07-06T05:14:05;18.00;48.30
1025;DHT22;501;48.214;11.350;2022-07-06T05:16:31;18.10;47.80
1025;DHT22;501;48.214;11.350;2022-07-06T05:18:56;18.20;47.60
1025;DHT22;501;48.214;11.350;2022-07-06T05:21:22;18.30;47.70
1025;DHT22;501;48.214;11.350;2022-07-06T05:23:47;18.40;47.50
1025;DHT22;501;48.214;11.350;2022-07-06T05:26:13;18.50;45.40
1025;DHT22;501;48.214;11.350;2022-07-06T05:28:39;18.50;45.20
1025;DHT22;501;48.214;11.350;2022-07-06T05:31:04;18.50;44.80
1025;DHT22;501;48.214;11.350;2022-07-06T05:33:30;18.50;44.70
1025;DHT22;501;48.214;11.350;2022-07-06T05:35:56;18.50;45.00
1025;DHT22;501;48.214;11.350;2022-07-06T05:38:21;18.50;45.10
1025;DHT22;501;48.214;11.350;2022-07-06T05:40:47;18.50;44.50
1025;DHT22;501;48.214;11.350;2022-07-06T05:43:13;18.60;45.60
1025;DHT22;501;48.214;11.350;2022-07-06T05:45:38;18.60;45.10
1025;DHT22;501;48.214;11.350;2022-07-06T05:48:04;18.70;44.30
1025;DHT22;501;48.214;11.350;2022-07-06T05:50:48;18.70;44.80
1025;DHT22;501;48.214;11.350;2022-07-06T05:53:14;18.70;43.60
1025;DHT22;501;48.214;11.350;2022-07-06T05:55:39;18.80;43.20
1025;DHT22;501;48.214;11.350;2022-07-06T05:58:05;18.70;43.60
1025;DHT22;501;48.214;11.350;2022-07-06T06:00:34;18.70;44.40
1025;DHT22;501;48.214;11.350;2022-07-06T06:03:00;18.70;44.10
1025;DHT22;501;48.214;11.350;2022-07-06T06:05:26;18.70;42.70
1025;DHT22;501;48.214;11.350;2022-07-06T06:07:51;18.70;42.60
1025;DHT22;501;48.214;11.350;2022-07-06T06:10:18;18.70;42.80
1025;DHT22;501;48.214;11.350;2022-07-06T06:12:45;18.70;43.60
1025;DHT22;501;48.214;11.350;2022-07-06T06:15:13;18.80;43.50
1025;DHT22;501;48.214;11.350;2022-07-06T06:17:39;18.80;43.40
1025;DHT22;501;48.214;11.350;2022-07-06T06:20:10;18.90;44.30
1025;DHT22;501;48.214;11.350;2022-07-06T06:22:50;18.90;42.80
1025;DHT22;501;48.214;11.350;2022-07-06T06:25:18;19.00;41.50
1025;DHT22;501;48.214;11.350;2022-07-06T06:27:44;19.00;41.00
1025;DHT22;501;48.214;11.350;2022-07-06T06:30:11;19.00;40.30
1025;DHT22;501;48.214;11.350;2022-07-06T06:32:37;19.10;39.40
1025;DHT22;501;48.214;11.350;2022-07-06T06:35:04;19.10;39.70
1025;DHT22;501;48.214;11.350;2022-07-06T06:37:29;19.10;39.30
1025;DHT22;501;48.214;11.350;2022-07-06T06:39:58;19.10;39.40
1025;DHT22;501;48.214;11.350;2022-07-06T06:42:24;19.20;41.10
1025;DHT22;501;48.214;11.350;2022-07-06T06:44:49;19.20;40.90
1025;DHT22;501;48.214;11.350;2022-07-06T06:47:15;19.30;39.50
1025;DHT22;501;48.214;11.350;2022-07-06T06:49:40;19.30;39.30
1025;DHT22;501;48.214;11.350;2022-07-06T06:52:08;19.40;39.30
1025;DHT22;501;48.214;11.350;2022-07-06T06:54:34;19.40;38.70
1025;DHT22;501;48.214;11.350;2022-07-06T06:57:00;19.40;38.70
1025;DHT22;501;48.214;11.350;2022-07-06T06:59:25;19.40;38.10
1025;DHT22;501;48.214;11.350;2022-07-06T07:01:51;19.50;38.00
1025;DHT22;501;48.214;11.350;2022-07-06T07:04:17;19.50;38.30
1025;DHT22;501;48.214;11.350;2022-07-06T07:06:43;19.60;38.90
1025;DHT22;501;48.214;11.350;2022-07-06T07:09:08;19.60;38.50
1025;DHT22;501;48.214;11.350;2022-07-06T07:11:34;19.70;37.40
1025;DHT22;501;48.214;11.350;2022-07-06T07:13:59;19.80;37.90
1025;DHT22;501;48.214;11.350;2022-07-06T07:16:26;19.90;37.60
1025;DHT22;501;48.214;11.350;2022-07-06T07:18:52;20.10;36.90
1025;DHT22;501;48.214;11.350;2022-07-06T07:21:18;20.10;36.80
1025;DHT22;501;48.214;11.350;2022-07-06T07:23:43;20.20;36.50
1025;DHT22;501;48.214;11.350;2022-07-06T07:26:12;20.30;36.20
1025;DHT22;501;48.214;11.350;2022-07-06T07:28:41;20.40;37.10
1025;DHT22;501;48.214;11.350;2022-07-06T07:31:07;20.50;35.20
1025;DHT22;501;48.214;11.350;2022-07-06T07:33:33;20.60;35.50
1025;DHT22;501;48.214;11.350;2022-07-06T07:35:59;20.60;36.00
1025;DHT22;501;48.214;11.350;2022-07-06T07:38:24;20.60;36.90
1025;DHT22;501;48.214;11.350;2022-07-06T07:40:50;20.70;35.70
1025;DHT22;501;48.214;11.350;2022-07-06T07:43:18;20.70;35.50
1025;DHT22;501;48.214;11.350;2022-07-06T07:45:43;20.70;36.50
1025;DHT22;501;48.214;11.350;2022-07-06T07:48:09;20.80;35.70
1025;DHT22;501;48.214;11.350;2022-07-06T07:50:35;20.80;36.20
1025;DHT22;501;48.214;11.350;2022-07-06T07:53:01;20.80;35.50
1025;DHT22;501;48.214;11.350;2022-07-06T07:55:27;20.80;36.00
1025;DHT22;501;48.214;11.350;2022-07-06T07:57:53;20.80;36.30
1025;DHT22;501;48.214;11.350;2022-07-06T08:00:18;20.80;36.60
1025;DHT22;501;48.214;11.350;2022-07-06T08:02:47;20.90;36.40
1025;DHT22;501;48.214;11.350;2022-07-06T08:05:12;20.90;34.50
1025;DHT22;501;48.214;11.350;2022-07-06T08:07:44;20.90;36.10
1025;DHT22;501;48.214;11.350;2022-07-06T08:10:10;21.00;35.50
1025;DHT22;501;48.214;11.350;2022-07-06T08:12:36;21.00;36.30
1025;DHT22;501;48.214;11.350;2022-07-06T08:15:03;21.00;35.20
1025;DHT22;501;48.214;11.350;2022-07-06T08:17:29;21.10;35.80
1025;DHT22;501;48.214;11.350;2022-07-06T08:19:55;21.10;36.30
1025;DHT22;501;48.214;11.350;2022-07-06T08:22:21;21.20;36.50
1025;DHT22;501;48.214;11.350;2022-07-06T08:24:46;21.30;34.80
1025;DHT22;501;48.214;11.350;2022-07-06T08:27:12;21.30;33.90
1025;DHT22;501;48.214;11.350;2022-07-06T08:29:38;21.40;33.90
1025;DHT22;501;48.214;11.350;2022-07-06T08:32:04;21.40;34.50
1025;DHT22;501;48.214;11.350;2022-07-06T08:34:30;21.50;33.20
1025;DHT22;501;48.214;11.350;2022-07-06T08:36:56;21.50;33.10
1025;DHT22;501;48.214;11.350;2022-07-06T08:39:24;21.40;32.10
1025;DHT22;501;48.214;11.350;2022-07-06T08:41:51;21.40;30.70
1025;DHT22;501;48.214;11.350;2022-07-06T08:44:17;21.40;31.30
1025;DHT22;501;48.214;11.350;2022-07-06T08:46:44;21.40;32.10
1025;DHT22;501;48.214;11.350;2022-07-06T08:49:14;21.50;32.10
1025;DHT22;501;48.214;11.350;2022-07-06T08:51:40;21.40;32.10
1025;DHT22;501;48.214;11.350;2022-07-06T08:54:07;21.50;32.10
1025;DHT22;501;48.214;11.350;2022-07-06T08:56:33;21.50;31.30
1025;DHT22;501;48.214;11.350;2022-07-06T08:59:00;21.50;31.00
1025;DHT22;501;48.214;11.350;2022-07-06T09:01:27;21.40;32.30
1025;DHT22;501;48.214;11.350;2022-07-06T09:03:54;21.50;32.10
1025;DHT22;501;48.214;11.350;2022-07-06T09:06:24;21.50;31.30
1025;DHT22;501;48.214;11.350;2022-07-06T09:08:53;21.50;30.50
1025;DHT22;501;48.214;11.350;2022-07-06T09:11:21;21.60;31.30
1025;DHT22;501;48.214;11.350;2022-07-06T09:13:47;21.50;30.00
1025;DHT22;501;48.214;11.350;2022-07-06T09:16:15;21.60;32.20
1025;DHT22;501;48.214;11.350;2022-07-06T09:18:44;21.60;32.20
1025;DHT22;501;48.214;11.350;2022-07-06T09:21:10;21.70;32.30
1025;DHT22;501;48.214;11.350;2022-07-06T09:23:38;21.80;31.90
1025;DHT22;501;48.214;11.350;2022-07-06T09:26:05;21.80;32.40
1025;DHT22;501;48.214;11.350;2022-07-06T09:28:44;21.90;32.90
1025;DHT22;501;48.214;11.350;2022-07-06T09:31:10;22.00;31.30
1025;DHT22;501;48.214;11.350;2022-07-06T09:33:37;22.10;30.50
1025;DHT22;501;48.214;11.350;2022-07-06T09:36:03;22.20;29.90
1025;DHT22;501;48.214;11.350;2022-07-06T09:38:31;22.20;29.80
1025;DHT22;501;48.214;11.350;2022-07-06T09:40:57;22.30;29.80
1025;DHT22;501;48.214;11.350;2022-07-06T09:43:24;22.30;28.90
1025;DHT22;501;48.214;11.350;2022-07-06T09:45:54;22.40;29.70
1025;DHT22;501;48.214;11.350;2022-07-06T09:51:02;22.50;30.00
1025;DHT22;501;48.214;11.350;2022-07-06T09:53:28;22.50;30.10
1025;DHT22;501;48.214;11.350;2022-07-06T09:55:56;22.50;29.30
1025;DHT22;501;48.214;11.350;2022-07-06T09:58:23;22.60;29.70
1025;DHT22;501;48.214;11.350;2022-07-06T10:00:49;22.70;29.60
1025;DHT22;501;48.214;11.350;2022-07-06T10:03:16;22.80;28.90
1025;DHT22;501;48.214;11.350;2022-07-06T10:05:44;22.90;29.60
1025;DHT22;501;48.214;11.350;2022-07-06T10:08:15;22.90;29.10
1025;DHT22;501;48.214;11.350;2022-07-06T10:10:42;23.00;29.10
1025;DHT22;501;48.214;11.350;2022-07-06T10:13:09;23.00;29.10
1025;DHT22;501;48.214;11.350;2022-07-06T10:15:38;23.10;28.20
1025;DHT22;501;48.214;11.350;2022-07-06T10:18:06;23.20;29.00
1025;DHT22;501;48.214;11.350;2022-07-06T10:20:36;23.30;27.90
1025;DHT22;501;48.214;11.350;2022-07-06T10:23:04;23.30;27.70
1025;DHT22;501;48.214;11.350;2022-07-06T10:25:32;23.40;27.50
1025;DHT22;501;48.214;11.350;2022-07-06T10:27:58;23.50;27.40
1025;DHT22;501;48.214;11.350;2022-07-06T10:30:25;23.60;28.00
1025;DHT22;501;48.214;11.350;2022-07-06T10:32:51;23.60;26.40
1025;DHT22;501;48.214;11.350;2022-07-06T10:35:20;23.70;27.40
1025;DHT22;501;48.214;11.350;2022-07-06T10:38:06;23.70;27.20
1025;DHT22;501;48.214;11.350;2022-07-06T10:40:33;23.80;26.60
1025;DHT22;501;48.214;11.350;2022-07-06T10:43:17;23.80;25.90
1025;DHT22;501;48.214;11.350;2022-07-06T10:51:29;24.00;27.50
1025;DHT22;501;48.214;11.350;2022-07-06T10:54:05;24.00;27.10
1025;DHT22;501;48.214;11.350;2022-07-06T10:56:39;24.10;26.80
1025;DHT22;501;48.214;11.350;2022-07-06T11:02:37;24.10;26.10
1025;DHT22;501;48.214;11.350;2022-07-06T11:05:11;24.20;26.50
1025;DHT22;501;48.214;11.350;2022-07-06T11:07:49;24.30;24.80
1025;DHT22;501;48.214;11.350;2022-07-06T11:10:15;24.50;24.80
1025;DHT22;501;48.214;11.350;2022-07-06T11:12:45;24.70;26.30
1025;DHT22;501;48.214;11.350;2022-07-06T11:15:10;25.00;24.60
1025;DHT22;501;48.214;11.350;2022-07-06T11:17:36;25.10;23.90
1025;DHT22;501;48.214;11.350;2022-07-06T11:20:11;25.20;24.60
1025;DHT22;501;48.214;11.350;2022-07-06T11:22:38;25.30;25.10
1025;DHT22;501;48.214;11.350;2022-07-06T11:25:05;25.50;24.30
1025;DHT22;501;48.214;11.350;2022-07-06T11:27:32;25.80;24.80
1025;DHT22;501;48.214;11.350;2022-07-06T11:29:59;26.10;24.20
1025;DHT22;501;48.214;11.350;2022-07-06T11:32:26;26.40;25.00
1025;DHT22;501;48.214;11.350;2022-07-06T11:34:52;26.70;21.90
1025;DHT22;501;48.214;11.350;2022-07-06T11:37:17;26.90;23.60
1025;DHT22;501;48.214;11.350;2022-07-06T11:39:45;27.10;22.80
1025;DHT22;501;48.214;11.350;2022-07-06T11:42:12;27.20;21.40
1025;DHT22;501;48.214;11.350;2022-07-06T11:44:39;27.10;21.80
1025;DHT22;501;48.214;11.350;2022-07-06T11:47:06;26.90;23.00
1025;DHT22;501;48.214;11.350;2022-07-06T11:49:33;26.90;23.20
1025;DHT22;501;48.214;11.350;2022-07-06T11:52:09;27.20;23.20
1025;DHT22;501;48.214;11.350;2022-07-06T11:54:36;27.50;22.20
1025;DHT22;501;48.214;11.350;2022-07-06T11:57:01;27.80;21.90
1025;DHT22;501;48.214;11.350;2022-07-06T11:59:30;28.00;20.90
1025;DHT22;501;48.214;11.350;2022-07-06T12:02:06;28.30;22.20
1025;DHT22;501;48.214;11.350;2022-07-06T12:04:34;28.70;22.00
1025;DHT22;501;48.214;11.350;2022-07-06T12:07:02;28.80;18.90
1025;DHT22;501;48.214;11.350;2022-07-06T12:09:35;28.40;19.40
1025;DHT22;501;48.214;11.350;2022-07-06T12:12:02;28.10;20.20
1025;DHT22;501;48.214;11.350;2022-07-06T12:14:30;28.00;21.60
1025;DHT22;501;48.214;11.350;2022-07-06T12:16:56;28.20;20.70
1025;DHT22;501;48.214;11.350;2022-07-06T12:19:22;28.50;21.40
1025;DHT22;501;48.214;11.350;2022-07-06T12:21:50;28.70;20.10
1025;DHT22;501;48.214;11.350;2022-07-06T12:24:21;28.90;20.80
1025;DHT22;501;48.214;11.350;2022-07-06T12:26:48;28.90;19.50
1025;DHT22;501;48.214;11.350;2022-07-06T12:29:14;28.90;20.40
1025;DHT22;501;48.214;11.350;2022-07-06T12:31:48;29.00;19.10
1025;DHT22;501;48.214;11.350;2022-07-06T12:34:20;29.00;19.40
1025;DHT22;501;48.214;11.350;2022-07-06T12:36:56;29.00;19.60
1025;DHT22;501;48.214;11.350;2022-07-06T12:39:23;28.80;18.50
1025;DHT22;501;48.214;11.350;2022-07-06T12:42:09;28.60;20.00
1025;DHT22;501;48.214;11.350;2022-07-06T12:44:47;28.30;20.00
1025;DHT22;501;48.214;11.350;2022-07-06T12:47:16;28.20;20.70
1025;DHT22;501;48.214;11.350;2022-07-06T12:49:42;28.20;21.00
1025;DHT22;501;48.214;11.350;2022-07-06T12:52:13;28.40;20.80
1025;DHT22;501;48.214;11.350;2022-07-06T12:54:50;28.60;20.10
1025;DHT22;501;48.214;11.350;2022-07-06T12:57:23;28.80;19.00
1025;DHT22;501;48.214;11.350;2022-07-06T13:02:22;29.20;19.90
1025;DHT22;501;48.214;11.350;2022-07-06T13:07:25;29.60;19.60
1025;DHT22;501;48.214;11.350;2022-07-06T13:09:51;29.70;17.40
1025;DHT22;501;48.214;11.350;2022-07-06T13:12:19;29.40;17.80
1025;DHT22;501;48.214;11.350;2022-07-06T13:14:44;29.10;18.00
1025;DHT22;501;48.214;11.350;2022-07-06T13:17:10;28.90;19.10
1025;DHT22;501;48.214;11.350;2022-07-06T13:19:35;29.00;19.50
1025;DHT22;501;48.214;11.350;2022-07-06T13:22:01;29.20;18.90
1025;DHT22;501;48.214;11.350;2022-07-06T13:24:27;29.40;18.30
1025;DHT22;501;48.214;11.350;2022-07-06T13:26:54;29.70;18.40
1025;DHT22;501;48.214;11.350;2022-07-06T13:29:20;29.70;16.80
1025;DHT22;501;48.214;11.350;2022-07-06T13:31:46;29.80;17.90
1025;DHT22;501;48.214;11.350;2022-07-06T13:34:11;29.90;17.90
1025;DHT22;501;48.214;11.350;2022-07-06T13:36:39;30.10;17.20
1025;DHT22;501;48.214;11.350;2022-07-06T13:39:05;30.10;18.50
1025;DHT22;501;48.214;11.350;2022-07-06T13:41:32;30.20;17.80
1025;DHT22;501;48.214;11.350;2022-07-06T13:43:57;30.10;16.70
1025;DHT22;501;48.214;11.350;2022-07-06T13:49:55;30.10;16.00
1025;DHT22;501;48.214;11.350;2022-07-06T13:52:21;29.70;16.80
1025;DHT22;501;48.214;11.350;2022-07-06T13:54:46;29.40;17.40
1025;DHT22;501;48.214;11.350;2022-07-06T13:57:12;29.40;18.20
1025;DHT22;501;48.214;11.350;2022-07-06T13:59:38;29.70;17.20
1025;DHT22;501;48.214;11.350;2022-07-06T14:02:04;29.90;16.30
1025;DHT22;501;48.214;11.350;2022-07-06T14:04:29;29.90;17.70
1025;DHT22;501;48.214;11.350;2022-07-06T14:06:55;29.80;17.60
1025;DHT22;501;48.214;11.350;2022-07-06T14:09:20;29.70;16.10
1025;DHT22;501;48.214;11.350;2022-07-06T14:11:46;29.50;16.80
1025;DHT22;501;48.214;11.350;2022-07-06T14:14:12;29.40;17.00
1025;DHT22;501;48.214;11.350;2022-07-06T14:16:41;29.40;17.40
1025;DHT22;501;48.214;11.350;2022-07-06T14:19:06;29.50;18.40
1025;DHT22;501;48.214;11.350;2022-07-06T14:21:32;29.40;16.40
1025;DHT22;501;48.214;11.350;2022-07-06T14:23:57;29.30;15.50
1025;DHT22;501;48.214;11.350;2022-07-06T14:26:23;29.20;17.30
1025;DHT22;501;48.214;11.350;2022-07-06T14:28:49;29.40;17.90
1025;DHT22;501;48.214;11.350;2022-07-06T14:31:15;29.60;17.20
1025;DHT22;501;48.214;11.350;2022-07-06T14:33:41;29.70;15.60
1025;DHT22;501;48.214;11.350;2022-07-06T14:36:07;29.70;17.10
1025;DHT22;501;48.214;11.350;2022-07-06T14:38:32;29.90;17.20
1025;DHT22;501;48.214;11.350;2022-07-06T14:40:59;29.90;15.40
1025;DHT22;501;48.214;11.350;2022-07-06T14:43:25;29.70;16.30
1025;DHT22;501;48.214;11.350;2022-07-06T14:45:50;29.60;16.30
1025;DHT22;501;48.214;11.350;2022-07-06T14:48:16;29.60;17.20
1025;DHT22;501;48.214;11.350;2022-07-06T14:50:42;29.60;16.90
1025;DHT22;501;48.214;11.350;2022-07-06T14:53:08;29.70;15.80
1025;DHT22;501;48.214;11.350;2022-07-06T14:55:34;29.80;16.40
1025;DHT22;501;48.214;11.350;2022-07-06T14:58:00;29.80;16.40
1025;DHT22;501;48.214;11.350;2022-07-06T15:00:25;29.60;16.70
1025;DHT22;501;48.214;11.350;2022-07-06T15:02:51;29.60;17.50
1025;DHT22;501;48.214;11.350;2022-07-06T15:05:17;29.60;15.90
1025;DHT22;501;48.214;11.350;2022-07-06T15:07:42;29.60;16.20
1025;DHT22;501;48.214;11.350;2022-07-06T15:10:09;29.60;14.60
1025;DHT22;501;48.214;11.350;2022-07-06T15:12:35;29.40;14.30
1025;DHT22;501;48.214;11.350;2022-07-06T15:15:01;29.30;16.70
1025;DHT22;501;48.214;11.350;2022-07-06T15:17:26;29.40;16.30
1025;DHT22;501;48.214;11.350;2022-07-06T15:19:53;29.40;15.40
1025;DHT22;501;48.214;11.350;2022-07-06T15:22:19;29.10;14.70
1025;DHT22;501;48.214;11.350;2022-07-06T15:24:47;29.10;15.70
1025;DHT22;501;48.214;11.350;2022-07-06T15:27:13;29.00;16.40
1025;DHT22;501;48.214;11.350;2022-07-06T15:29:39;28.80;16.80
1025;DHT22;501;48.214;11.350;2022-07-06T15:32:08;28.50;17.10
1025;DHT22;501;48.214;11.350;2022-07-06T15:34:33;28.30;16.00
1025;DHT22;501;48.214;11.350;2022-07-06T15:36:59;28.20;17.70
1025;DHT22;501;48.214;11.350;2022-07-06T15:39:25;28.20;16.80
1025;DHT22;501;48.214;11.350;2022-07-06T15:41:50;28.20;16.80
1025;DHT22;501;48.214;11.350;2022-07-06T15:44:16;28.20;17.20
1025;DHT22;501;48.214;11.350;2022-07-06T15:46:42;28.20;16.80
1025;DHT22;501;48.214;11.350;2022-07-06T15:49:07;28.00;16.60
1025;DHT22;501;48.214;11.350;2022-07-06T15:51:33;28.00;17.50
1025;DHT22;501;48.214;11.350;2022-07-06T15:54:02;28.00;17.60
1025;DHT22;501;48.214;11.350;2022-07-06T15:56:28;27.90;16.60
1025;DHT22;501;48.214;11.350;2022-07-06T15:58:54;27.70;17.00
1025;DHT22;501;48.214;11.350;2022-07-06T16:01:22;27.30;17.80
1025;DHT22;501;48.214;11.350;2022-07-06T16:03:48;27.30;18.10
1025;DHT22;501;48.214;11.350;2022-07-06T16:06:14;27.30;17.40
1025;DHT22;501;48.214;11.350;2022-07-06T16:08:41;27.50;18.60
1025;DHT22;501;48.214;11.350;2022-07-06T16:11:06;27.60;17.80
1025;DHT22;501;48.214;11.350;2022-07-06T16:13:32;27.70;18.30
1025;DHT22;501;48.214;11.350;2022-07-06T16:15:58;27.60;17.40
1025;DHT22;501;48.214;11.350;2022-07-06T16:18:24;27.30;17.20
1025;DHT22;501;48.214;11.350;2022-07-06T16:20:50;27.30;18.40
1025;DHT22;501;48.214;11.350;2022-07-06T16:23:16;27.20;19.30